Time;durP1;ratioP1;P1;durP2;ratioP2;P2;SDS_P1;SDS_P2;PMS_P1;PMS_P2;Temp;Humidity;BMP_temperature;BMP_pressure;BME280_temperature;BME280_humidity;BME280_pressure;Samples;Min_cycle;Max_cycle;Signal;HPM_P1;HPM_P2
2022/01/17 00:01:41;;;;;;;31.17;9.77;;;5.90;99.90;;;5.72;99.20;102452.78;5183727;28;20053;-71
2022/01/17 00:04:13;;;;;;;29.42;10.10;;;5.90;99.90;;;5.73;99.59;102440.75;5233702;23;20084;-78
2022/01/17 00:06:46;;;;;;;24.75;10.25;;;5.90;99.90;;;5.69;99.13;102449.97;5238939;22;20044;-72
2022/01/17 00:09:20;;;;;;;29.63;9.23;;;5.80;99.90;;;5.66;100.00;102441.94;5228348;28;20508;-72
2022/01/17 00:11:53;;;;;;;31.40;10.32;;;5.90;99.90;;;5.69;99.95;102447.38;5228229;28;20103;-73
2022/01/17 00:14:33;;;;;;;32.40;10.40;;;5.80;99.90;;;5.66;99.31;102449.69;5228613;28;20048;-72
2022/01/17 00:17:11;;;;;;;27.17;9.45;;;5.80;99.90;;;5.64;99.37;102445.19;5227789;28;20045;-71
2022/01/17 00:19:45;;;;;;;24.83;9.20;;;5.80;99.90;;;5.58;99.70;102439.53;5227646;28;20076;-72
2022/01/17 00:22:19;;;;;;;28.15;9.60;;;5.80;99.90;;;5.57;99.88;102438.63;5227233;28;20041;-70
2022/01/17 00:24:51;;;;;;;24.25;8.98;;;5.80;99.90;;;5.59;100.00;102430.97;5227021;28;20049;-71
2022/01/17 00:27:23;;;;;;;33.60;10.85;;;5.80;99.90;;;5.65;100.00;102436.63;5227121;28;20065;-71
2022/01/17 00:29:56;;;;;;;28.27;9.27;;;5.80;99.90;;;5.63;100.00;102438.22;5227132;28;20051;-71
2022/01/17 00:32:28;;;;;;;31.65;9.80;;;5.80;99.90;;;5.67;100.00;102438.59;5227554;28;20049;-72
2022/01/17 00:35:00;;;;;;;27.38;9.35;;;5.80;99.90;;;5.66;99.88;102441.94;5227084;28;20055;-72
2022/01/17 00:37:32;;;;;;;23.30;8.38;;;5.80;99.90;;;5.64;99.86;102447.78;5227265;28;20512;-73
2022/01/17 00:40:06;;;;;;;28.98;9.32;;;5.80;99.90;;;5.68;100.00;102457.59;5227271;28;20049;-71
2022/01/17 00:42:40;;;;;;;28.00;8.93;;;5.80;99.90;;;5.70;100.00;102462.13;5227167;28;20067;-73
2022/01/17 00:45:15;;;;;;;29.13;9.73;;;5.90;99.90;;;5.66;100.00;102467.81;5227070;28;20102;-71
2022/01/17 00:47:50;;;;;;;28.25;8.98;;;5.80;99.90;;;5.65;100.00;102467.69;5226703;28;20095;-73
2022/01/17 00:50:23;;;;;;;29.55;8.55;;;5.80;99.90;;;5.58;100.00;102475.75;5226860;28;20048;-70
2022/01/17 00:52:55;;;;;;;29.73;8.35;;;5.80;99.90;;;5.53;100.00;102490.88;5227010;28;20396;-71
2022/01/17 00:55:27;;;;;;;29.27;8.80;;;5.80;99.90;;;5.56;100.00;102491.16;5226938;28;20108;-72
2022/01/17 00:58:00;;;;;;;27.73;10.30;;;5.70;99.90;;;5.61;100.00;102502.78;5226792;28;20059;-72
2022/01/17 01:00:34;;;;;;;27.05;9.02;;;5.80;99.90;;;5.55;100.00;102512.63;5226644;28;20049;-71
2022/01/17 01:03:06;;;;;;;27.08;8.77;;;5.80;99.90;;;5.59;100.00;102513.75;5226465;28;20049;-71
2022/01/17 01:05:38;;;;;;;25.95;9.88;;;5.80;99.90;;;5.57;100.00;102497.22;5226404;28;20051;-71
2022/01/17 01:08:10;;;;;;;25.50;9.63;;;5.80;99.90;;;5.54;100.00;102495.31;5225928;28;20049;-73
2022/01/17 01:10:43;;;;;;;25.00;9.13;;;5.80;99.90;;;5.59;100.00;102487.88;5226446;28;20051;-71
2022/01/17 01:13:17;;;;;;;31.40;10.20;;;5.80;99.90;;;5.59;100.00;102499.13;5226750;28;20048;-73
2022/01/17 01:16:10;;;;;;;28.65;10.38;;;5.80;99.90;;;5.59;100.00;102493.97;5226408;28;20048;-72
2022/01/17 01:19:07;;;;;;;33.13;10.77;;;5.80;99.90;;;5.59;100.00;102482.72;5226511;28;20130;-72
2022/01/17 01:21:58;;;;;;;28.42;9.60;;;5.80;99.90;;;5.59;100.00;102485.31;5226241;28;20044;-72
2022/01/17 01:30:28;;;;;;;32.00;10.43;;;5.80;99.90;;;5.59;100.00;102506.91;5212638;28;20044;-70
2022/01/17 01:33:03;;;;;;;31.50;9.93;;;5.80;99.90;;;5.61;100.00;102507.97;5226152;28;20098;-71
2022/01/17 01:35:43;;;;;;;30.25;10.20;;;5.80;99.90;;;5.58;100.00;102511.97;5225976;28;20059;-72
2022/01/17 01:38:15;;;;;;;30.33;11.10;;;5.80;99.90;;;5.56;100.00;102522.19;5226053;28;20056;-73
2022/01/17 01:40:47;;;;;;;30.90;9.68;;;5.80;99.90;;;5.60;100.00;102524.22;5225712;28;20049;-71
2022/01/17 01:43:19;;;;;;;31.02;10.23;;;5.80;99.90;;;5.61;100.00;102528.66;5225818;28;20131;-73
2022/01/17 01:45:57;;;;;;;33.85;10.48;;;5.80;99.90;;;5.58;100.00;102523.22;5225555;28;20045;-71
2022/01/17 01:48:33;;;;;;;27.90;9.88;;;5.80;99.90;;;5.60;100.00;102515.56;5225929;28;20053;-70
2022/01/17 01:51:05;;;;;;;32.08;10.32;;;5.80;99.90;;;5.57;100.00;102507.56;5226252;28;20055;-71
2022/01/17 01:53:37;;;;;;;33.63;9.75;;;5.80;99.90;;;5.58;100.00;102505.09;5225522;28;20136;-71
2022/01/17 01:56:10;;;;;;;34.95;10.73;;;5.80;99.90;;;5.61;100.00;102496.69;5225648;28;20049;-72
2022/01/17 01:58:42;;;;;;;34.17;10.55;;;5.80;99.90;;;5.64;100.00;102487.50;5225755;28;20053;-72
2022/01/17 02:01:14;;;;;;;30.55;9.30;;;5.80;99.90;;;5.67;100.00;102484.22;5225711;28;20052;-70
2022/01/17 02:03:48;;;;;;;34.03;10.82;;;5.80;99.90;;;5.69;100.00;102500.81;5225643;28;20045;-72
2022/01/17 02:06:20;;;;;;;33.30;10.85;;;5.80;99.90;;;5.70;100.00;102503.50;5225461;28;20528;-71
2022/01/17 02:08:52;;;;;;;33.97;10.50;;;5.80;99.90;;;5.65;100.00;102499.66;5225259;28;20045;-71
2022/01/17 02:11:24;;;;;;;34.22;10.60;;;5.80;99.90;;;5.63;100.00;102498.63;5225870;28;20041;-71
2022/01/17 02:13:56;;;;;;;35.17;10.75;;;5.80;99.90;;;5.64;100.00;102502.13;5225382;28;20060;-73
2022/01/17 02:16:28;;;;;;;31.52;11.93;;;5.80;99.90;;;5.61;100.00;102513.13;5225563;28;20049;-71
2022/01/17 02:19:02;;;;;;;32.50;10.82;;;5.80;99.90;;;5.61;100.00;102518.31;5226153;28;20049;-70
2022/01/17 02:21:45;;;;;;;37.65;11.98;;;5.80;99.90;;;5.55;100.00;102533.31;5230139;28;20053;-70
2022/01/17 02:24:21;;;;;;;32.53;10.98;;;5.80;99.90;;;5.58;100.00;102528.38;5229624;28;20408;-73
2022/01/17 02:26:54;;;;;;;32.85;11.68;;;5.80;99.90;;;5.61;100.00;102512.22;5229486;28;20049;-72
2022/01/17 02:29:26;;;;;;;35.25;10.80;;;5.80;99.90;;;5.63;100.00;102501.22;5229214;28;20045;-73
2022/01/17 02:31:58;;;;;;;35.33;10.82;;;5.80;99.90;;;5.64;100.00;102497.84;5229804;28;20049;-71
2022/01/17 02:34:30;;;;;;;38.35;11.55;;;5.80;99.90;;;5.67;100.00;102492.94;5229430;28;20135;-72
2022/01/17 02:37:04;;;;;;;38.85;12.55;;;5.90;99.90;;;5.74;100.00;102499.50;5229753;28;20045;-71
2022/01/17 02:39:36;;;;;;;36.10;11.43;;;5.90;99.90;;;5.69;100.00;102506.00;5229246;28;20051;-71
2022/01/17 02:42:10;;;;;;;38.70;11.55;;;5.90;99.90;;;5.76;100.00;102509.97;5229395;28;20055;-70
2022/01/17 02:44:45;;;;;;;27.08;9.80;;;5.90;99.90;;;5.78;100.00;102498.06;5229238;28;20056;-72
2022/01/17 02:47:17;;;;;;;36.60;12.60;;;5.90;99.90;;;5.80;100.00;102504.25;5229537;28;20052;-72
2022/01/17 02:49:49;;;;;;;35.10;11.68;;;5.90;99.90;;;5.77;100.00;102493.66;5229253;28;20056;-73
2022/01/17 02:52:24;;;;;;;34.08;10.38;;;5.90;99.90;;;5.76;100.00;102503.13;5229484;28;20051;-71
2022/01/17 02:54:56;;;;;;;34.15;11.25;;;5.90;99.90;;;5.83;100.00;102501.94;5229225;28;20433;-73
2022/01/17 02:57:28;;;;;;;33.63;10.93;;;6.00;99.90;;;5.84;100.00;102501.13;5228957;28;20051;-73
2022/01/17 03:00:00;;;;;;;31.83;10.82;;;6.00;99.90;;;5.85;100.00;102495.19;5228716;28;20045;-72
2022/01/17 03:02:32;;;;;;;34.95;11.82;;;6.00;99.90;;;5.93;100.00;102501.91;5228815;28;20052;-73
2022/01/17 03:05:09;;;;;;;38.20;11.52;;;6.00;99.90;;;5.92;100.00;102502.69;5228764;28;20056;-72
2022/01/17 03:07:44;;;;;;;35.15;12.52;;;6.00;99.90;;;5.87;100.00;102511.75;5229354;28;20076;-71
2022/01/17 03:10:28;;;;;;;34.13;10.75;;;6.00;99.90;;;5.85;100.00;102510.72;5228983;28;20047;-72
2022/01/17 03:13:03;;;;;;;35.60;11.10;;;6.00;99.90;;;5.85;100.00;102514.19;5228646;28;20044;-72
2022/01/17 03:15:36;;;;;;;34.55;11.18;;;6.00;99.90;;;5.89;100.00;102505.00;5228804;28;20426;-73
2022/01/17 03:18:09;;;;;;;33.80;11.45;;;6.00;99.90;;;5.95;100.00;102495.19;5228786;28;20087;-70
2022/01/17 03:20:41;;;;;;;35.70;12.52;;;6.00;99.90;;;5.93;100.00;102489.91;5228837;28;20049;-73
2022/01/17 03:23:14;;;;;;;42.17;12.55;;;6.10;99.90;;;5.95;100.00;102483.16;5228502;28;20497;-72
2022/01/17 03:25:46;;;;;;;38.08;10.95;;;6.10;99.90;;;5.95;100.00;102490.00;5228483;28;20048;-71
2022/01/17 03:28:18;;;;;;;36.03;11.07;;;6.10;99.90;;;5.95;100.00;102497.78;5228570;28;20048;-72
2022/01/17 03:30:50;;;;;;;35.65;11.10;;;6.10;99.90;;;5.93;100.00;102501.91;5228057;28;20060;-71
2022/01/17 03:33:22;;;;;;;31.88;10.50;;;6.10;99.90;;;5.91;100.00;102506.06;5228458;28;20410;-71
2022/01/17 03:35:54;;;;;;;34.97;11.23;;;6.10;99.90;;;5.95;100.00;102513.31;5228419;28;20418;-72
2022/01/17 03:38:31;;;;;;;34.15;12.65;;;6.10;99.90;;;5.91;100.00;102504.38;5228172;28;20045;-71
2022/01/17 03:41:05;;;;;;;36.60;11.27;;;6.00;99.90;;;5.90;100.00;102499.06;5228054;28;20049;-71
2022/01/17 03:43:37;;;;;;;29.67;10.38;;;6.10;99.90;;;5.93;100.00;102504.50;5228290;28;20055;-70
2022/01/17 03:46:09;;;;;;;30.88;11.00;;;6.00;99.90;;;5.93;100.00;102494.13;5228210;28;20045;-72
2022/01/17 03:48:41;;;;;;;31.55;11.02;;;6.10;99.90;;;5.91;100.00;102494.03;5228200;28;20045;-72
2022/01/17 03:51:13;;;;;;;32.67;11.63;;;6.10;99.90;;;5.89;100.00;102485.22;5228171;28;20051;-71
2022/01/17 03:53:46;;;;;;;30.38;10.70;;;6.10;99.90;;;5.93;100.00;102478.59;5228075;28;20632;-72
2022/01/17 03:56:18;;;;;;;34.58;11.27;;;6.10;99.90;;;5.94;100.00;102494.28;5228084;28;20076;-71
2022/01/17 03:58:50;;;;;;;35.70;11.50;;;6.10;99.90;;;5.91;100.00;102503.47;5227732;28;20071;-71
2022/01/17 04:01:22;;;;;;;38.47;11.68;;;6.00;99.90;;;5.91;100.00;102514.72;5227949;28;20071;-73
2022/01/17 04:03:54;;;;;;;39.80;13.35;;;6.10;99.90;;;5.89;100.00;102516.28;5227740;28;20053;-70
2022/01/17 04:06:27;;;;;;;38.33;12.23;;;6.00;99.90;;;5.93;100.00;102523.53;5226178;28;20055;-71
2022/01/17 04:09:00;;;;;;;37.13;11.70;;;6.10;99.90;;;5.96;100.00;102522.88;5227804;28;20044;-71
2022/01/17 04:11:32;;;;;;;35.75;13.27;;;6.10;99.90;;;5.91;100.00;102530.25;5227738;28;20051;-72
2022/01/17 04:14:05;;;;;;;41.15;15.02;;;6.10;99.90;;;5.85;100.00;102529.72;5227585;28;20575;-72
2022/01/17 04:16:37;;;;;;;38.63;12.45;;;6.10;99.90;;;5.87;100.00;102523.00;5227696;28;20053;-70
2022/01/17 04:19:11;;;;;;;37.15;12.90;;;6.10;99.90;;;5.94;100.00;102545.16;5227592;28;20494;-72
2022/01/17 04:21:45;;;;;;;40.10;13.23;;;6.10;99.90;;;5.93;100.00;102543.31;5227364;28;20057;-74
2022/01/17 04:24:18;;;;;;;37.58;13.27;;;6.10;99.90;;;5.96;100.00;102546.19;5227231;28;20103;-70
2022/01/17 04:26:50;;;;;;;38.33;12.15;;;6.10;99.90;;;5.93;100.00;102539.09;5227463;28;20052;-72
2022/01/17 04:29:22;;;;;;;36.13;12.35;;;6.10;99.90;;;5.95;100.00;102539.19;5227459;28;20051;-73
2022/01/17 04:31:54;;;;;;;42.13;11.85;;;6.10;99.90;;;5.94;100.00;102539.97;5227544;28;20139;-71
2022/01/17 04:34:26;;;;;;;36.00;11.50;;;6.10;99.90;;;5.96;100.00;102535.81;5227172;28;20045;-71
2022/01/17 04:36:58;;;;;;;35.03;11.52;;;6.10;99.90;;;5.95;100.00;102527.16;5227290;28;20071;-71
2022/01/17 04:39:31;;;;;;;41.25;13.23;;;6.10;99.90;;;5.99;100.00;102533.47;5227190;28;20071;-71
2022/01/17 04:42:10;;;;;;;33.80;11.35;;;6.10;99.90;;;5.96;100.00;102534.13;5225971;28;20139;-72
2022/01/17 04:47:33;;;;;;;34.67;10.98;;;6.10;99.90;;;6.00;100.00;102535.31;5226995;28;20052;-71
2022/01/17 04:50:07;;;;;;;38.13;13.20;;;6.20;99.90;;;5.99;100.00;102541.22;5227028;28;20045;-73
2022/01/17 04:52:39;;;;;;;34.15;11.75;;;6.20;99.90;;;5.94;100.00;102540.88;5226633;28;20049;-70
2022/01/17 04:55:15;;;;;;;34.28;12.07;;;6.10;99.90;;;5.93;100.00;102543.31;5226696;28;20135;-71
2022/01/17 04:57:48;;;;;;;31.40;10.65;;;6.10;99.90;;;5.95;100.00;102554.72;5226418;28;20131;-71
2022/01/17 05:00:23;;;;;;;32.28;11.50;;;6.10;99.90;;;5.93;100.00;102554.63;5226789;28;20135;-71
2022/01/17 05:02:56;;;;;;;34.70;11.93;;;6.10;99.90;;;5.92;100.00;102551.88;5226820;28;20409;-71
2022/01/17 05:05:28;;;;;;;34.67;11.30;;;6.10;99.90;;;5.93;100.00;102539.09;5226016;28;20053;-71
2022/01/17 05:08:00;;;;;;;32.28;11.15;;;6.10;99.90;;;5.98;100.00;102547.19;5226478;28;20041;-72
2022/01/17 05:10:33;;;;;;;35.15;11.88;;;6.10;99.90;;;5.97;100.00;102545.38;5226351;28;20049;-70
2022/01/17 05:13:06;;;;;;;36.13;11.57;;;6.10;99.90;;;5.97;100.00;102541.13;5226626;28;20133;-71
2022/01/17 05:15:49;;;;;;;33.42;11.10;;;6.10;99.90;;;5.98;100.00;102544.59;5226414;28;20056;-72
2022/01/17 05:19:48;;;;;;;31.73;11.52;;;6.10;99.90;;;6.03;100.00;102552.75;5226578;28;20056;-71
2022/01/17 05:21:17;;;;;;;33.78;11.05;;;6.10;99.90;;;5.99;100.00;102543.81;5226746;28;20056;-72
2022/01/17 05:23:49;;;;;;;34.00;11.27;;;6.20;99.90;;;5.97;100.00;102553.16;5227404;28;20482;-73
2022/01/17 05:26:22;;;;;;;30.05;10.57;;;6.10;99.90;;;5.93;100.00;102558.84;5226884;28;20052;-73
2022/01/17 05:28:54;;;;;;;31.85;11.23;;;6.10;99.90;;;5.94;100.00;102555.50;5227360;28;20045;-70
2022/01/17 05:31:26;;;;;;;36.10;10.98;;;6.10;99.90;;;5.95;100.00;102558.22;5226161;28;20052;-70
2022/01/17 05:33:58;;;;;;;37.58;12.05;;;6.10;99.90;;;5.95;100.00;102562.50;5226038;28;20049;-70
2022/01/17 05:36:30;;;;;;;37.15;10.82;;;6.10;99.90;;;5.97;100.00;102567.00;5226110;28;20045;-70
2022/01/17 05:39:02;;;;;;;29.10;10.52;;;6.10;99.90;;;5.98;100.00;102560.13;5225895;28;20049;-71
2022/01/17 05:41:36;;;;;;;34.65;10.07;;;6.10;99.90;;;5.97;100.00;102558.34;5226077;28;20061;-70
2022/01/17 05:44:08;;;;;;;32.58;10.95;;;6.10;99.90;;;5.95;100.00;102565.09;5225859;28;20057;-71
2022/01/17 05:46:40;;;;;;;33.20;11.63;;;6.10;99.90;;;5.97;100.00;102566.09;5226103;28;20045;-72
2022/01/17 05:49:12;;;;;;;35.35;10.68;;;6.10;99.90;;;5.95;100.00;102563.41;5225651;28;20059;-72
2022/01/17 05:51:44;;;;;;;36.08;11.80;;;6.10;99.90;;;5.96;100.00;102567.78;5225597;28;20055;-71
2022/01/17 05:54:16;;;;;;;34.58;11.63;;;6.10;99.90;;;5.96;100.00;102565.19;5225640;28;20053;-72
2022/01/17 05:56:50;;;;;;;39.55;12.50;;;6.10;99.90;;;5.98;100.00;102563.63;5226884;28;20452;-72
2022/01/17 05:59:22;;;;;;;32.95;10.77;;;6.10;99.90;;;5.97;100.00;102563.50;5226699;28;20048;-71
2022/01/17 06:01:54;;;;;;;35.97;10.50;;;6.10;99.90;;;5.99;100.00;102567.13;5226641;28;20059;-71
2022/01/17 06:04:26;;;;;;;36.55;12.00;;;6.20;99.90;;;5.99;100.00;102567.13;5324620;22;20450;-71
2022/01/17 06:06:58;;;;;;;34.97;11.25;;;6.10;99.90;;;5.98;100.00;102570.50;5215288;28;20510;-71
2022/01/17 06:09:40;;;;;;;37.30;12.02;;;6.10;99.90;;;5.97;100.00;102566.09;5224838;28;20047;-71
2022/01/17 06:12:14;;;;;;;35.58;11.35;;;6.10;99.90;;;5.97;100.00;102579.03;5223390;28;20045;-71
2022/01/17 06:14:46;;;;;;;30.83;11.15;;;6.10;99.90;;;5.95;100.00;102572.84;5224748;28;20055;-72
2022/01/17 06:17:18;;;;;;;36.38;10.23;;;6.10;99.90;;;5.97;100.00;102581.63;5225819;28;20045;-71
2022/01/17 06:19:50;;;;;;;33.38;9.55;;;6.10;99.90;;;5.98;100.00;102570.50;5225233;28;20049;-70
2022/01/17 06:22:22;;;;;;;34.83;11.55;;;6.10;99.90;;;5.97;100.00;102572.19;5225172;28;20051;-71
2022/01/17 06:24:54;;;;;;;33.55;10.20;;;6.10;99.90;;;6.01;100.00;102570.75;5224753;28;20053;-71
2022/01/17 06:27:27;;;;;;;34.60;11.05;;;6.10;99.90;;;6.02;100.00;102559.63;5225222;28;20049;-71
2022/01/17 06:29:59;;;;;;;36.97;10.43;;;6.10;99.90;;;6.04;100.00;102562.31;5225367;28;20041;-70
2022/01/17 06:32:31;;;;;;;32.65;10.75;;;6.10;99.90;;;6.04;100.00;102571.00;5225311;28;20045;-71
2022/01/17 06:35:04;;;;;;;32.42;10.18;;;6.20;99.90;;;6.05;100.00;102566.72;5225015;28;20052;-70
2022/01/17 06:37:38;;;;;;;39.70;11.10;;;6.20;99.90;;;6.06;100.00;102581.47;5225556;28;20076;-71
2022/01/17 06:40:11;;;;;;;32.78;9.90;;;6.20;99.90;;;6.04;100.00;102573.59;5225615;28;20131;-70
2022/01/17 06:42:45;;;;;;;31.33;10.35;;;6.20;99.90;;;6.05;99.84;102564.13;5225117;28;20049;-71
2022/01/17 06:45:18;;;;;;;31.20;10.20;;;6.20;99.90;;;6.01;99.89;102565.59;5224543;28;20057;-71
2022/01/17 06:47:50;;;;;;;30.00;9.48;;;6.10;99.90;;;6.04;99.63;102559.75;5225035;28;20053;-70
2022/01/17 06:50:23;;;;;;;26.73;8.10;;;6.20;99.90;;;6.05;99.65;102567.63;5225502;28;20470;-71
2022/01/17 06:52:55;;;;;;;31.40;9.88;;;6.20;99.90;;;6.02;99.04;102554.44;5225074;28;20049;-72
2022/01/17 06:55:27;;;;;;;36.05;9.75;;;6.20;99.90;;;6.04;99.26;102557.16;5224877;28;20060;-71
2022/01/17 06:58:01;;;;;;;26.92;9.23;;;6.20;99.90;;;6.08;99.13;102551.44;5224960;28;20136;-70
2022/01/17 07:00:33;;;;;;;25.90;8.30;;;6.20;99.90;;;6.10;98.86;102553.38;5225141;28;20045;-71
2022/01/17 07:03:05;;;;;;;25.73;9.52;;;6.20;99.90;;;6.13;99.03;102564.00;5225362;28;20055;-71
2022/01/17 07:05:37;;;;;;;25.00;9.15;;;6.30;99.90;;;6.16;98.99;102565.91;5226147;28;20068;-71
2022/01/17 07:08:09;;;;;;;28.40;8.00;;;6.30;99.90;;;6.16;98.02;102573.69;5228912;28;20052;-72
2022/01/17 07:10:41;;;;;;;29.73;8.90;;;6.30;99.90;;;6.18;98.18;102588.53;5228627;28;20049;-73
2022/01/17 07:13:14;;;;;;;27.83;9.07;;;6.30;99.90;;;6.20;98.05;102601.66;5229050;28;20051;-72
2022/01/17 07:15:46;;;;;;;26.55;9.13;;;6.30;99.90;;;6.19;97.94;102625.72;5228244;28;20492;-71
2022/01/17 07:18:19;;;;;;;28.42;9.02;;;6.30;99.90;;;6.20;97.45;102623.28;5228780;28;20044;-71
2022/01/17 07:20:51;;;;;;;25.52;8.40;;;6.30;99.90;;;6.20;97.39;102602.53;5228302;28;20045;-71
2022/01/17 07:23:23;;;;;;;26.98;8.18;;;6.40;99.90;;;6.23;97.29;102588.94;5228902;28;20489;-72
2022/01/17 07:25:55;;;;;;;24.70;8.23;;;6.40;99.90;;;6.23;96.84;102582.06;5228472;28;20059;-71
2022/01/17 07:28:29;;;;;;;30.73;9.00;;;6.40;99.90;;;6.24;96.54;102573.50;5229266;28;20426;-72
2022/01/17 07:31:01;;;;;;;28.40;9.20;;;6.40;99.90;;;6.25;96.81;102569.22;5228224;28;20460;-73
2022/01/17 07:33:37;;;;;;;24.88;7.95;;;6.40;99.90;;;6.28;96.15;102574.66;5228459;28;20045;-71
2022/01/17 07:36:09;;;;;;;28.10;8.18;;;6.40;99.90;;;6.28;96.11;102571.19;5227871;28;20056;-71
2022/01/17 07:38:41;;;;;;;24.17;8.00;;;6.40;99.90;;;6.30;96.43;102577.38;5228265;28;20056;-71
2022/01/17 07:41:14;;;;;;;29.30;7.88;;;6.40;99.90;;;6.28;96.01;102574.66;5227907;28;20049;-72
2022/01/17 07:43:48;;;;;;;25.52;8.15;;;6.40;99.90;;;6.31;96.09;102582.66;5227769;28;20045;-70
2022/01/17 07:46:24;;;;;;;29.27;8.65;;;6.40;99.90;;;6.33;95.70;102577.63;5228074;28;20080;-72
2022/01/17 07:49:03;;;;;;;24.05;8.65;;;6.40;99.90;;;6.34;95.83;102576.84;5228500;28;20500;-71
2022/01/17 07:51:37;;;;;;;21.17;7.63;;;6.40;99.90;;;6.34;96.11;102576.84;5228167;28;20087;-70
2022/01/17 07:54:11;;;;;;;25.67;8.43;;;6.50;99.90;;;6.35;95.45;102576.97;5227397;28;20398;-71
2022/01/17 07:56:44;;;;;;;27.10;8.48;;;6.50;99.90;;;6.38;95.81;102581.47;5228175;28;20060;-70
2022/01/17 07:59:17;;;;;;;25.08;7.97;;;6.50;99.90;;;6.41;95.56;102590.41;5228056;28;20075;-71
2022/01/17 08:01:50;;;;;;;25.27;8.40;;;6.50;99.90;;;6.45;94.73;102591.53;5227831;28;20072;-71
2022/01/17 08:04:22;;;;;;;30.33;8.70;;;6.50;99.90;;;6.44;94.94;102581.97;5227201;28;20084;-70
2022/01/17 08:06:55;;;;;;;23.35;8.02;;;6.50;99.90;;;6.45;95.08;102596.72;5228161;28;20537;-70
2022/01/17 08:09:30;;;;;;;27.70;9.18;;;6.50;99.90;;;6.48;95.43;102594.41;5227792;28;20051;-71
2022/01/17 08:12:04;;;;;;;30.45;9.63;;;6.60;99.90;;;6.48;94.87;102605.66;5228036;28;20045;-71
2022/01/17 08:14:39;;;;;;;25.35;8.43;;;6.60;99.90;;;6.50;95.12;102603.19;5227116;28;20063;-72
2022/01/17 08:17:11;;;;;;;28.00;8.73;;;6.60;99.90;;;6.52;94.80;102614.59;5227496;28;20166;-72
2022/01/17 08:19:44;;;;;;;26.30;7.82;;;6.60;99.90;;;6.52;94.76;102607.72;5227333;28;20059;-70
2022/01/17 08:22:16;;;;;;;25.25;8.25;;;6.60;99.90;;;6.53;95.47;102606.94;5227623;28;20144;-72
2022/01/17 08:24:48;;;;;;;29.83;9.68;;;6.60;99.90;;;6.56;95.24;102603.69;5226945;28;20053;-71
2022/01/17 08:27:20;;;;;;;30.20;9.43;;;6.60;99.90;;;6.59;94.80;102609.13;5227381;28;20045;-72
2022/01/17 08:29:53;;;;;;;32.42;9.75;;;6.60;99.90;;;6.60;94.82;102616.09;5227493;28;20053;-71
2022/01/17 08:32:28;;;;;;;24.00;8.40;;;6.70;99.90;;;6.63;94.87;102615.44;5227709;28;20045;-73
2022/01/17 08:35:00;;;;;;;;;;;6.70;99.90;;;6.63;95.23;102612.84;5227309;28;20107;-73
2022/01/17 08:37:32;;;;;;;23.00;7.50;;;6.70;99.90;;;6.64;94.07;102612.97;5227318;28;20270;-71
2022/01/17 08:40:08;;;;;;;23.35;8.20;;;6.70;99.90;;;6.68;94.69;102615.03;5227217;28;20470;-71
2022/01/17 08:42:41;;;;;;;31.13;9.18;;;6.70;99.90;;;6.63;93.47;102615.44;5227394;28;20523;-71
2022/01/17 08:45:15;;;;;;;28.85;9.45;;;6.80;99.90;;;6.67;93.90;102623.59;5225858;28;20087;-72
2022/01/17 08:47:49;;;;;;;32.15;9.90;;;6.70;99.90;;;6.71;92.64;102630.81;5227321;28;20091;-71
2022/01/17 08:50:30;;;;;;;29.15;9.27;;;6.80;99.90;;;6.66;92.64;102624.38;5226647;28;20072;-73
2022/01/17 08:53:02;;;;;;;28.55;7.85;;;6.80;99.90;;;6.64;93.22;102622.41;5226860;28;20486;-73
2022/01/17 08:55:34;;;;;;;19.75;7.18;;;6.80;99.90;;;6.63;93.49;102631.88;5226376;28;20045;-72
2022/01/17 08:58:11;;;;;;;21.40;8.07;;;6.70;99.90;;;6.65;93.53;102632.94;5228071;28;20045;-72
2022/01/17 09:00:50;;;;;;;25.80;8.48;;;6.80;99.90;;;6.67;93.33;102639.13;5227630;28;20049;-71
2022/01/17 09:03:23;;;;;;;21.95;6.93;;;6.80;99.90;;;6.68;92.92;102642.63;5227777;28;20063;-71
2022/01/17 09:05:55;;;;;;;22.15;7.60;;;6.80;99.90;;;6.75;92.57;102652.69;5226423;28;20084;-72
2022/01/17 09:08:27;;;;;;;17.85;6.30;;;6.80;99.90;;;6.71;92.14;102656.72;5226940;28;20045;-71
2022/01/17 09:11:06;;;;;;;21.13;7.20;;;6.80;99.90;;;6.76;91.98;102660.59;5226347;28;20052;-71
2022/01/17 09:13:38;;;;;;;23.73;6.72;;;6.80;99.90;;;6.78;91.88;102664.22;5226587;28;20405;-71
2022/01/17 09:16:35;;;;;;;20.80;6.70;;;6.90;99.90;;;6.75;91.18;102676.03;5228103;28;20478;-71
2022/01/17 09:19:08;;;;;;;20.60;7.20;;;6.90;99.90;;;6.78;91.01;102695.34;5227905;28;20048;-72
2022/01/17 09:21:41;;;;;;;21.02;7.40;;;6.90;99.90;;;6.90;90.24;102690.19;5226752;28;20083;-72
2022/01/17 09:24:13;;;;;;;19.52;7.38;;;7.00;99.90;;;6.93;90.24;102684.38;5226510;28;20048;-71
2022/01/17 09:26:45;;;;;;;29.58;9.40;;;7.00;99.90;;;6.85;91.13;102673.41;5226541;28;20049;-72
2022/01/17 09:29:18;;;;;;;29.00;8.55;;;7.00;99.90;;;6.89;91.31;102672.84;5225824;28;20055;-71
2022/01/17 09:31:51;;;;;;;30.90;9.57;;;7.00;99.90;;;6.93;90.93;102661.03;5226688;28;20528;-71
2022/01/17 09:34:23;;;;;;;25.42;8.65;;;7.00;99.90;;;6.96;91.46;102664.75;5226382;28;20053;-70
2022/01/17 09:36:55;;;;;;;27.08;8.35;;;7.00;99.90;;;6.87;92.06;102673.50;5226325;28;20472;-72
2022/01/17 09:39:27;;;;;;;27.10;9.48;;;7.10;99.90;;;6.82;92.21;102686.09;5226081;28;20049;-69
2022/01/17 09:41:59;;;;;;;32.45;10.07;;;7.00;99.90;;;6.84;93.18;102694.91;5225933;28;20490;-71
2022/01/17 09:44:31;;;;;;;29.80;9.35;;;7.00;99.90;;;6.79;93.27;102691.97;5225578;28;20417;-69
2022/01/17 09:47:09;;;;;;;32.22;9.82;;;7.00;99.90;;;6.81;93.05;102699.84;5226631;28;20045;-71
2022/01/17 09:49:47;;;;;;;29.77;10.35;;;7.00;99.90;;;6.79;93.46;102697.16;5226419;28;20467;-71
2022/01/17 09:52:37;;;;;;;27.52;9.38;;;6.90;99.90;;;6.83;93.86;102695.69;5226386;28;20095;-72
2022/01/17 09:55:14;;;;;;;29.40;9.73;;;7.00;99.90;;;6.86;94.17;102692.44;5226193;28;20474;-70
2022/01/17 09:57:51;;;;;;;24.65;8.68;;;7.00;99.90;;;6.98;93.95;102694.34;5226335;28;20071;-71
2022/01/17 10:00:26;;;;;;;28.58;10.52;;;7.00;99.90;;;7.06;93.82;102676.78;5225684;28;20059;-72
2022/01/17 10:03:05;;;;;;;27.05;9.60;;;7.10;99.90;;;7.14;94.07;102699.03;5226110;28;20048;-70
2022/01/17 10:05:39;;;;;;;31.83;10.60;;;7.20;99.90;;;7.17;94.00;102700.94;5225869;28;20497;-72
2022/01/17 10:08:15;;;;;;;27.10;10.45;;;7.20;99.90;;;7.19;94.07;102686.44;5225707;28;20056;-72
2022/01/17 10:10:50;;;;;;;30.67;10.70;;;7.20;99.90;;;7.23;93.90;102725.69;5226160;28;20072;-71
2022/01/17 10:13:25;;;;;;;33.00;10.25;;;7.30;99.90;;;7.21;93.72;102719.47;5225726;28;20421;-71
2022/01/17 10:16:05;;;;;;;33.30;10.60;;;7.30;99.90;;;7.20;94.47;102699.50;5225163;28;20049;-70
2022/01/17 10:18:45;;;;;;;32.67;11.35;;;7.30;99.90;;;7.19;94.88;102718.47;5226021;28;20045;-73
2022/01/17 10:21:34;;;;;;;30.65;10.00;;;7.30;99.90;;;7.18;94.65;102726.13;5225764;28;20052;-71
2022/01/17 10:24:21;;;;;;;31.17;10.38;;;7.30;99.90;;;7.22;94.56;102723.88;5225367;28;20482;-71
2022/01/17 10:35:33;;;;;;;27.52;9.18;;;7.20;99.90;;;6.99;95.93;102729.84;5225128;28;20049;-70
2022/01/17 10:38:09;;;;;;;31.73;10.13;;;7.20;99.90;;;6.97;96.93;102733.97;5226017;28;20057;-72
2022/01/17 10:40:43;;;;;;;27.42;10.57;;;7.10;99.90;;;7.05;96.73;102721.66;5227471;28;20052;-71
2022/01/17 10:43:22;;;;;;;29.45;9.07;;;7.20;99.90;;;6.98;97.26;102722.84;5229788;28;20045;-72
2022/01/17 10:45:56;;;;;;;36.15;11.57;;;7.10;99.90;;;7.00;97.43;102717.78;5229440;28;20052;-70
2022/01/17 10:48:30;;;;;;;32.92;11.20;;;7.10;99.90;;;7.03;98.04;102721.50;5229430;28;20055;-72
2022/01/17 10:51:06;;;;;;;31.67;10.63;;;7.10;99.90;;;7.11;98.11;102710.84;5229823;28;20044;-72
2022/01/17 10:53:40;;;;;;;33.53;10.95;;;7.20;99.90;;;7.17;98.27;102695.75;5229528;28;20053;-71
2022/01/17 10:56:14;;;;;;;36.72;11.77;;;7.20;99.90;;;7.11;97.83;102706.59;5229391;28;20128;-73
2022/01/17 10:58:46;;;;;;;32.55;10.77;;;7.20;99.90;;;7.16;98.25;102706.91;5229626;28;20508;-72